Airfield :







YOU CAN JOIN US ON...

 
LOGIN :

Register | Disclaimer

   EN    FR    IT 

 









Legend :    VFR   Marginal VFR   IFR   Intensive IFR   Very Intensive IFR
Visi :
Ceiling :
>= 8 km
>= 3000ft
5 to 8 km
1000 to 3000 ft
1500m to 5 km
500 to 1000 ft
800 to 1500m
200 to 500 ft
< 800m
< 200 ft
Symbols :   Thunderstorms  Fog  Heavy snow  Heavy precipitations  Wind > 20 kt






- Airport Elevation : 16 ft
- IATA code : FDF


TFFF - Aime Cesaire

CURRENT METAR :
  • 071600Z AUTO 10014KT 9999 -RA SCT020/// SCT027/// BKN037/// ///TCU 28/26 Q1014

EXPIRED METARs :
  • 071530Z AUTO 11017KT 9999 -RA BKN023 BKN031 30/25 Q1014
  • 071500Z AUTO 13017KT 090V160 9999 FEW019 SCT026 BKN038 30/25 Q1014
  • 071430Z AUTO 11018KT 9999 BKN019/// BKN027/// BKN066/// ///TCU 30/25 Q1014
  • 071400Z AUTO 10017KT 070V130 9999 -RA BKN020 BKN029 OVC043 29/25 Q1014
  • 071330Z AUTO 11015KT 9999 -RA SCT018 BKN024 28/25 Q1014

Expired Forecast.
TTZP FIR / North America



MET'MAP, your aeronautical weather chart ! - Copyright ORBIFLY December 2007 - Disclaimer

ORBIFLY MET'MAP TEAM :

Programming & Development : Alexandra Zaïnal
Original concept : Baudouin d'Aumeries
Technical & hardware support : Manuel Goepfert
Assistance : Marc-Olivier Méhu




SOURCES & CREDITS :

   NOAA